sensor_id;sensor_type;location;lat;lon;timestamp;temperature;humidity
2543;DHT22;1116;51.502;7.414;2023-03-01T00:02:18;0.00;13.50
2543;DHT22;1116;51.502;7.414;2023-03-01T00:04:49;0.00;13.00
2543;DHT22;1116;51.502;7.414;2023-03-01T00:07:22;0.00;13.20
2543;DHT22;1116;51.502;7.414;2023-03-01T00:09:53;0.00;12.80
2543;DHT22;1116;51.502;7.414;2023-03-01T00:12:24;0.00;12.20
2543;DHT22;1116;51.502;7.414;2023-03-01T00:14:55;0.40;12.70
2543;DHT22;1116;51.502;7.414;2023-03-01T00:17:27;0.00;12.90
2543;DHT22;1116;51.502;7.414;2023-03-01T00:19:58;-0.10;12.40
2543;DHT22;1116;51.502;7.414;2023-03-01T00:22:32;-0.10;13.00
2543;DHT22;1116;51.502;7.414;2023-03-01T00:25:03;-0.10;13.00
2543;DHT22;1116;51.502;7.414;2023-03-01T00:27:34;-0.10;13.60
2543;DHT22;1116;51.502;7.414;2023-03-01T00:30:06;-0.20;12.90
2543;DHT22;1116;51.502;7.414;2023-03-01T00:32:37;-0.20;13.30
2543;DHT22;1116;51.502;7.414;2023-03-01T00:35:08;-0.30;13.20
2543;DHT22;1116;51.502;7.414;2023-03-01T00:37:42;-0.30;13.40
2543;DHT22;1116;51.502;7.414;2023-03-01T00:40:14;-0.30;14.10
2543;DHT22;1116;51.502;7.414;2023-03-01T00:42:45;-0.70;13.80
2543;DHT22;1116;51.502;7.414;2023-03-01T00:45:16;-0.40;12.90
2543;DHT22;1116;51.502;7.414;2023-03-01T00:47:48;-0.40;13.50
2543;DHT22;1116;51.502;7.414;2023-03-01T00:50:19;-0.40;13.60
2543;DHT22;1116;51.502;7.414;2023-03-01T00:52:55;-0.50;13.50
2543;DHT22;1116;51.502;7.414;2023-03-01T00:55:26;-0.60;13.60
2543;DHT22;1116;51.502;7.414;2023-03-01T00:57:57;-0.20;14.60
2543;DHT22;1116;51.502;7.414;2023-03-01T01:00:28;-0.60;14.70
2543;DHT22;1116;51.502;7.414;2023-03-01T01:02:59;-0.90;13.30
2543;DHT22;1116;51.502;7.414;2023-03-01T01:05:30;-0.70;14.60
2543;DHT22;1116;51.502;7.414;2023-03-01T01:08:03;-0.70;13.40
2543;DHT22;1116;51.502;7.414;2023-03-01T01:10:35;-0.70;14.30
2543;DHT22;1116;51.502;7.414;2023-03-01T01:13:05;-0.70;14.50
2543;DHT22;1116;51.502;7.414;2023-03-01T01:15:36;-0.80;14.30
2543;DHT22;1116;51.502;7.414;2023-03-01T01:18:07;-0.80;14.60
2543;DHT22;1116;51.502;7.414;2023-03-01T01:20:38;-0.90;14.30
2543;DHT22;1116;51.502;7.414;2023-03-01T01:23:12;-0.90;14.70
2543;DHT22;1116;51.502;7.414;2023-03-01T01:25:43;-0.90;14.60
2543;DHT22;1116;51.502;7.414;2023-03-01T01:28:14;-0.90;14.80
2543;DHT22;1116;51.502;7.414;2023-03-01T01:30:44;-0.90;14.80
2543;DHT22;1116;51.502;7.414;2023-03-01T01:33:15;-0.90;15.90
2543;DHT22;1116;51.502;7.414;2023-03-01T01:35:46;-1.20;15.00
2543;DHT22;1116;51.502;7.414;2023-03-01T01:38:20;-1.30;15.40
2543;DHT22;1116;51.502;7.414;2023-03-01T01:40:51;-0.90;15.30
2543;DHT22;1116;51.502;7.414;2023-03-01T01:43:27;-1.00;16.10
2543;DHT22;1116;51.502;7.414;2023-03-01T01:46:01;-0.90;15.40
2543;DHT22;1116;51.502;7.414;2023-03-01T01:48:37;-1.00;15.70
2543;DHT22;1116;51.502;7.414;2023-03-01T01:51:18;-1.00;15.50
2543;DHT22;1116;51.502;7.414;2023-03-01T01:53:56;-1.00;16.00
2543;DHT22;1116;51.502;7.414;2023-03-01T01:56:29;-1.00;15.40
2543;DHT22;1116;51.502;7.414;2023-03-01T01:59:01;-1.00;16.80
2543;DHT22;1116;51.502;7.414;2023-03-01T02:01:35;-1.20;15.90
2543;DHT22;1116;51.502;7.414;2023-03-01T02:04:08;-1.00;15.70
2543;DHT22;1116;51.502;7.414;2023-03-01T02:06:41;-1.10;15.40
2543;DHT22;1116;51.502;7.414;2023-03-01T02:09:19;-1.20;16.70
2543;DHT22;1116;51.502;7.414;2023-03-01T02:11:51;-1.20;16.80
2543;DHT22;1116;51.502;7.414;2023-03-01T02:14:22;-1.20;16.70
2543;DHT22;1116;51.502;7.414;2023-03-01T02:17:02;-1.20;16.80
2543;DHT22;1116;51.502;7.414;2023-03-01T02:19:44;-1.50;16.50
2543;DHT22;1116;51.502;7.414;2023-03-01T02:22:21;-1.20;16.80
2543;DHT22;1116;51.502;7.414;2023-03-01T02:25:04;-1.60;16.50
2543;DHT22;1116;51.502;7.414;2023-03-01T02:27:48;-1.20;18.00
2543;DHT22;1116;51.502;7.414;2023-03-01T02:30:24;-0.90;17.00
2543;DHT22;1116;51.502;7.414;2023-03-01T02:32:56;-1.70;16.40
2543;DHT22;1116;51.502;7.414;2023-03-01T02:35:32;-1.40;17.30
2543;DHT22;1116;51.502;7.414;2023-03-01T02:38:07;-1.40;18.70
2543;DHT22;1116;51.502;7.414;2023-03-01T02:40:39;-1.40;18.50
2543;DHT22;1116;51.502;7.414;2023-03-01T02:43:12;-1.30;18.50
2543;DHT22;1116;51.502;7.414;2023-03-01T02:45:48;-1.40;16.60
2543;DHT22;1116;51.502;7.414;2023-03-01T02:48:20;-1.40;17.70
2543;DHT22;1116;51.502;7.414;2023-03-01T02:51:04;-1.40;18.50
2543;DHT22;1116;51.502;7.414;2023-03-01T02:53:44;-1.40;18.10
2543;DHT22;1116;51.502;7.414;2023-03-01T02:56:16;-1.30;19.10
2543;DHT22;1116;51.502;7.414;2023-03-01T02:58:47;-1.60;19.10
2543;DHT22;1116;51.502;7.414;2023-03-01T03:01:24;-1.30;18.70
2543;DHT22;1116;51.502;7.414;2023-03-01T03:04:05;-1.30;19.60
2543;DHT22;1116;51.502;7.414;2023-03-01T03:06:37;-1.30;18.80
2543;DHT22;1116;51.502;7.414;2023-03-01T03:09:09;-1.30;18.00
2543;DHT22;1116;51.502;7.414;2023-03-01T03:11:43;-1.30;17.20
2543;DHT22;1116;51.502;7.414;2023-03-01T03:14:29;-1.40;18.40
2543;DHT22;1116;51.502;7.414;2023-03-01T03:17:14;-1.40;17.90
2543;DHT22;1116;51.502;7.414;2023-03-01T03:19:45;-1.40;18.40
2543;DHT22;1116;51.502;7.414;2023-03-01T03:22:16;-1.40;18.90
2543;DHT22;1116;51.502;7.414;2023-03-01T03:24:47;-1.50;17.90
2543;DHT22;1116;51.502;7.414;2023-03-01T03:27:17;-1.50;18.00
2543;DHT22;1116;51.502;7.414;2023-03-01T03:29:48;-1.50;18.70
2543;DHT22;1116;51.502;7.414;2023-03-01T03:32:22;-1.50;18.20
2543;DHT22;1116;51.502;7.414;2023-03-01T03:34:52;-1.50;18.70
2543;DHT22;1116;51.502;7.414;2023-03-01T03:37:23;-1.60;19.10
2543;DHT22;1116;51.502;7.414;2023-03-01T03:40:09;-1.90;19.30
2543;DHT22;1116;51.502;7.414;2023-03-01T03:42:43;-1.50;18.90
2543;DHT22;1116;51.502;7.414;2023-03-01T03:45:14;-1.60;18.70
2543;DHT22;1116;51.502;7.414;2023-03-01T03:47:48;-1.60;19.00
2543;DHT22;1116;51.502;7.414;2023-03-01T03:50:19;-1.40;18.80
2543;DHT22;1116;51.502;7.414;2023-03-01T03:52:50;-1.60;18.30
2543;DHT22;1116;51.502;7.414;2023-03-01T03:55:21;-1.70;17.80
2543;DHT22;1116;51.502;7.414;2023-03-01T03:57:57;-1.70;18.70
2543;DHT22;1116;51.502;7.414;2023-03-01T04:00:30;-1.30;19.00
2543;DHT22;1116;51.502;7.414;2023-03-01T04:03:10;-1.70;18.60
2543;DHT22;1116;51.502;7.414;2023-03-01T04:05:41;-1.30;18.50
2543;DHT22;1116;51.502;7.414;2023-03-01T04:08:25;-1.80;18.80
2543;DHT22;1116;51.502;7.414;2023-03-01T04:10:59;-1.80;19.10
2543;DHT22;1116;51.502;7.414;2023-03-01T04:13:51;-1.80;19.10
2543;DHT22;1116;51.502;7.414;2023-03-01T04:16:23;-1.90;18.30
2543;DHT22;1116;51.502;7.414;2023-03-01T04:18:56;-2.20;17.70
2543;DHT22;1116;51.502;7.414;2023-03-01T04:21:28;-1.90;18.80
2543;DHT22;1116;51.502;7.414;2023-03-01T04:23:59;-2.00;18.60
2543;DHT22;1116;51.502;7.414;2023-03-01T04:26:31;-1.60;19.90
2543;DHT22;1116;51.502;7.414;2023-03-01T04:29:02;-2.00;19.60
2543;DHT22;1116;51.502;7.414;2023-03-01T04:31:33;-1.90;19.60
2543;DHT22;1116;51.502;7.414;2023-03-01T04:34:06;-1.90;19.40
2543;DHT22;1116;51.502;7.414;2023-03-01T04:36:37;-1.90;19.50
2543;DHT22;1116;51.502;7.414;2023-03-01T04:39:08;-2.00;20.00
2543;DHT22;1116;51.502;7.414;2023-03-01T04:41:40;-2.00;19.60
2543;DHT22;1116;51.502;7.414;2023-03-01T04:44:11;-2.00;20.30
2543;DHT22;1116;51.502;7.414;2023-03-01T04:46:42;-2.00;20.20
2543;DHT22;1116;51.502;7.414;2023-03-01T04:49:15;-1.80;19.30
2543;DHT22;1116;51.502;7.414;2023-03-01T04:51:46;-2.00;21.70
2543;DHT22;1116;51.502;7.414;2023-03-01T04:54:17;-2.00;21.20
2543;DHT22;1116;51.502;7.414;2023-03-01T04:56:54;-1.70;20.50
2543;DHT22;1116;51.502;7.414;2023-03-01T04:59:25;-2.30;19.90
2543;DHT22;1116;51.502;7.414;2023-03-01T05:01:58;-2.10;20.30
2543;DHT22;1116;51.502;7.414;2023-03-01T05:04:31;-2.10;20.20
2543;DHT22;1116;51.502;7.414;2023-03-01T05:07:02;-2.20;19.20
2543;DHT22;1116;51.502;7.414;2023-03-01T05:09:33;-2.40;20.10
2543;DHT22;1116;51.502;7.414;2023-03-01T05:12:04;-2.20;21.00
2543;DHT22;1116;51.502;7.414;2023-03-01T05:14:36;-1.80;20.70
2543;DHT22;1116;51.502;7.414;2023-03-01T05:17:07;-2.40;21.20
2543;DHT22;1116;51.502;7.414;2023-03-01T05:19:41;-1.80;21.10
2543;DHT22;1116;51.502;7.414;2023-03-01T05:22:12;-1.90;20.50
2543;DHT22;1116;51.502;7.414;2023-03-01T05:24:44;-2.30;20.70
2543;DHT22;1116;51.502;7.414;2023-03-01T05:27:15;-2.00;21.30
2543;DHT22;1116;51.502;7.414;2023-03-01T05:29:46;-2.30;20.80
2543;DHT22;1116;51.502;7.414;2023-03-01T05:32:16;-2.30;21.60
2543;DHT22;1116;51.502;7.414;2023-03-01T05:34:50;-2.30;21.40
2543;DHT22;1116;51.502;7.414;2023-03-01T05:37:22;-1.90;22.60
2543;DHT22;1116;51.502;7.414;2023-03-01T05:39:53;-2.00;23.50
2543;DHT22;1116;51.502;7.414;2023-03-01T05:42:24;-2.40;22.20
2543;DHT22;1116;51.502;7.414;2023-03-01T05:44:55;-2.00;20.70
2543;DHT22;1116;51.502;7.414;2023-03-01T05:47:26;-2.40;21.70
2543;DHT22;1116;51.502;7.414;2023-03-01T05:49:59;-2.30;22.20
2543;DHT22;1116;51.502;7.414;2023-03-01T05:52:30;-2.00;23.00
2543;DHT22;1116;51.502;7.414;2023-03-01T05:55:01;-2.40;22.40
2543;DHT22;1116;51.502;7.414;2023-03-01T05:57:32;-2.00;21.80
2543;DHT22;1116;51.502;7.414;2023-03-01T06:00:04;-2.10;21.70
2543;DHT22;1116;51.502;7.414;2023-03-01T06:02:35;-2.80;22.20
2543;DHT22;1116;51.502;7.414;2023-03-01T06:05:10;-2.10;22.50
2543;DHT22;1116;51.502;7.414;2023-03-01T06:07:42;-2.00;23.00
2543;DHT22;1116;51.502;7.414;2023-03-01T06:10:14;-2.50;22.60
2543;DHT22;1116;51.502;7.414;2023-03-01T06:12:45;-2.50;22.90
2543;DHT22;1116;51.502;7.414;2023-03-01T06:15:23;-2.40;24.30
2543;DHT22;1116;51.502;7.414;2023-03-01T06:20:44;-2.80;24.00
2543;DHT22;1116;51.502;7.414;2023-03-01T06:23:15;-2.40;24.40
2543;DHT22;1116;51.502;7.414;2023-03-01T06:25:46;-2.30;25.10
2543;DHT22;1116;51.502;7.414;2023-03-01T06:28:17;-2.30;25.40
2543;DHT22;1116;51.502;7.414;2023-03-01T06:30:49;-2.00;25.50
2543;DHT22;1116;51.502;7.414;2023-03-01T06:33:21;-1.80;27.50
2543;DHT22;1116;51.502;7.414;2023-03-01T06:35:56;-2.40;26.50
2543;DHT22;1116;51.502;7.414;2023-03-01T06:38:27;-2.10;25.20
2543;DHT22;1116;51.502;7.414;2023-03-01T06:40:58;-1.80;25.90
2543;DHT22;1116;51.502;7.414;2023-03-01T06:43:29;-2.00;26.20
2543;DHT22;1116;51.502;7.414;2023-03-01T06:46:04;-2.10;26.10
2543;DHT22;1116;51.502;7.414;2023-03-01T06:48:35;-2.00;26.90
2543;DHT22;1116;51.502;7.414;2023-03-01T06:51:11;-2.00;27.30
2543;DHT22;1116;51.502;7.414;2023-03-01T06:53:42;-2.00;28.50
2543;DHT22;1116;51.502;7.414;2023-03-01T06:56:13;-1.90;28.50
2543;DHT22;1116;51.502;7.414;2023-03-01T06:58:43;-1.70;27.80
2543;DHT22;1116;51.502;7.414;2023-03-01T07:01:14;-1.50;28.00
2543;DHT22;1116;51.502;7.414;2023-03-01T07:03:45;-1.70;27.70
2543;DHT22;1116;51.502;7.414;2023-03-01T07:06:19;-1.70;26.70
2543;DHT22;1116;51.502;7.414;2023-03-01T07:08:49;-1.60;26.00
2543;DHT22;1116;51.502;7.414;2023-03-01T07:11:20;-1.60;26.70
2543;DHT22;1116;51.502;7.414;2023-03-01T07:13:53;-1.60;25.50
2543;DHT22;1116;51.502;7.414;2023-03-01T07:16:26;-1.80;25.90
2543;DHT22;1116;51.502;7.414;2023-03-01T07:18:57;-1.50;25.40
2543;DHT22;1116;51.502;7.414;2023-03-01T07:21:31;-1.10;25.90
2543;DHT22;1116;51.502;7.414;2023-03-01T07:24:02;-1.40;25.00
2543;DHT22;1116;51.502;7.414;2023-03-01T07:26:33;-1.40;24.40
2543;DHT22;1116;51.502;7.414;2023-03-01T07:29:05;-1.00;24.70
2543;DHT22;1116;51.502;7.414;2023-03-01T07:31:39;-1.60;24.40
2543;DHT22;1116;51.502;7.414;2023-03-01T07:34:10;-1.20;23.80
2543;DHT22;1116;51.502;7.414;2023-03-01T07:36:43;-1.20;24.90
2543;DHT22;1116;51.502;7.414;2023-03-01T07:39:15;-1.10;25.20
2543;DHT22;1116;51.502;7.414;2023-03-01T07:41:46;-1.00;24.10
2543;DHT22;1116;51.502;7.414;2023-03-01T07:44:17;-1.00;25.20
2543;DHT22;1116;51.502;7.414;2023-03-01T07:46:48;-0.90;24.90
2543;DHT22;1116;51.502;7.414;2023-03-01T07:49:20;-0.90;25.20
2543;DHT22;1116;51.502;7.414;2023-03-01T07:51:53;-0.80;25.30
2543;DHT22;1116;51.502;7.414;2023-03-01T07:54:24;-0.70;25.30
2543;DHT22;1116;51.502;7.414;2023-03-01T07:57:08;-0.70;24.90
2543;DHT22;1116;51.502;7.414;2023-03-01T07:59:38;-1.00;23.60
2543;DHT22;1116;51.502;7.414;2023-03-01T08:02:09;-0.60;22.90
2543;DHT22;1116;51.502;7.414;2023-03-01T08:04:40;-0.50;23.30
2543;DHT22;1116;51.502;7.414;2023-03-01T08:07:14;-0.40;22.50
2543;DHT22;1116;51.502;7.414;2023-03-01T08:09:45;-0.30;21.40
2543;DHT22;1116;51.502;7.414;2023-03-01T08:12:19;-0.30;21.30
2543;DHT22;1116;51.502;7.414;2023-03-01T08:15:10;-0.20;21.30
2543;DHT22;1116;51.502;7.414;2023-03-01T08:17:41;-0.10;20.20
2543;DHT22;1116;51.502;7.414;2023-03-01T08:20:12;-0.20;19.80
2543;DHT22;1116;51.502;7.414;2023-03-01T08:22:49;0.10;19.60
2543;DHT22;1116;51.502;7.414;2023-03-01T08:28:05;0.40;19.80
2543;DHT22;1116;51.502;7.414;2023-03-01T08:30:35;0.60;20.70
2543;DHT22;1116;51.502;7.414;2023-03-01T08:33:06;0.70;18.00
2543;DHT22;1116;51.502;7.414;2023-03-01T08:35:37;0.80;18.90
2543;DHT22;1116;51.502;7.414;2023-03-01T08:38:10;0.90;17.10
2543;DHT22;1116;51.502;7.414;2023-03-01T08:40:42;1.10;16.80
2543;DHT22;1116;51.502;7.414;2023-03-01T08:43:12;1.20;16.50
2543;DHT22;1116;51.502;7.414;2023-03-01T08:45:45;1.30;15.80
2543;DHT22;1116;51.502;7.414;2023-03-01T08:48:18;1.50;14.70
2543;DHT22;1116;51.502;7.414;2023-03-01T08:50:49;1.60;14.30
2543;DHT22;1116;51.502;7.414;2023-03-01T08:53:23;1.70;14.60
2543;DHT22;1116;51.502;7.414;2023-03-01T08:56:34;1.80;14.00
2543;DHT22;1116;51.502;7.414;2023-03-01T08:59:05;1.90;14.40
2543;DHT22;1116;51.502;7.414;2023-03-01T09:01:35;2.00;12.30
2543;DHT22;1116;51.502;7.414;2023-03-01T09:04:17;2.10;10.00
2543;DHT22;1116;51.502;7.414;2023-03-01T09:06:47;2.20;10.80
2543;DHT22;1116;51.502;7.414;2023-03-01T09:09:21;2.40;10.40
2543;DHT22;1116;51.502;7.414;2023-03-01T09:11:52;2.80;9.60
2543;DHT22;1116;51.502;7.414;2023-03-01T09:14:22;2.50;8.90
2543;DHT22;1116;51.502;7.414;2023-03-01T09:16:54;2.60;8.40
2543;DHT22;1116;51.502;7.414;2023-03-01T09:19:25;2.70;7.70
2543;DHT22;1116;51.502;7.414;2023-03-01T09:21:56;2.70;4.00
2543;DHT22;1116;51.502;7.414;2023-03-01T09:24:31;2.80;6.50
2543;DHT22;1116;51.502;7.414;2023-03-01T09:27:02;3.00;6.00
2543;DHT22;1116;51.502;7.414;2023-03-01T09:29:36;3.10;5.00
2543;DHT22;1116;51.502;7.414;2023-03-01T09:32:08;3.20;5.40
2543;DHT22;1116;51.502;7.414;2023-03-01T09:34:39;3.30;3.50
2543;DHT22;1116;51.502;7.414;2023-03-01T09:37:22;3.60;3.00
2543;DHT22;1116;51.502;7.414;2023-03-01T09:39:56;3.20;3.50
2543;DHT22;1116;51.502;7.414;2023-03-01T09:42:28;3.20;2.90
2543;DHT22;1116;51.502;7.414;2023-03-01T09:45:04;3.10;1.00
2543;DHT22;1116;51.502;7.414;2023-03-01T09:47:36;3.20;1.90
2543;DHT22;1116;51.502;7.414;2023-03-01T09:50:32;3.20;1.90
2543;DHT22;1116;51.502;7.414;2023-03-01T09:53:06;3.30;2.00
2543;DHT22;1116;51.502;7.414;2023-03-01T09:55:51;3.30;1.00
2543;DHT22;1116;51.502;7.414;2023-03-01T09:58:34;3.30;1.50
2543;DHT22;1116;51.502;7.414;2023-03-01T10:01:24;3.40;2.00
2543;DHT22;1116;51.502;7.414;2023-03-01T10:04:23;3.80;1.00
2543;DHT22;1116;51.502;7.414;2023-03-01T10:07:05;3.60;1.00
2543;DHT22;1116;51.502;7.414;2023-03-01T10:09:39;3.70;1.00
2543;DHT22;1116;51.502;7.414;2023-03-01T10:12:15;3.80;1.00
2543;DHT22;1116;51.502;7.414;2023-03-01T10:14:54;3.90;1.00
2543;DHT22;1116;51.502;7.414;2023-03-01T10:17:30;4.00;1.00
2543;DHT22;1116;51.502;7.414;2023-03-01T10:20:19;4.10;1.00
2543;DHT22;1116;51.502;7.414;2023-03-01T10:22:51;4.10;1.00
2543;DHT22;1116;51.502;7.414;2023-03-01T10:25:39;4.00;1.00
2543;DHT22;1116;51.502;7.414;2023-03-01T10:28:17;4.10;1.00
2543;DHT22;1116;51.502;7.414;2023-03-01T10:30:51;4.20;1.00
2543;DHT22;1116;51.502;7.414;2023-03-01T10:33:25;4.30;1.00
2543;DHT22;1116;51.502;7.414;2023-03-01T10:35:57;4.30;1.00
2543;DHT22;1116;51.502;7.414;2023-03-01T10:38:30;4.30;1.00
2543;DHT22;1116;51.502;7.414;2023-03-01T10:41:05;4.40;1.00
2543;DHT22;1116;51.502;7.414;2023-03-01T10:43:45;4.60;1.00
2543;DHT22;1116;51.502;7.414;2023-03-01T10:46:24;4.60;1.00
2543;DHT22;1116;51.502;7.414;2023-03-01T10:49:14;4.60;1.00
2543;DHT22;1116;51.502;7.414;2023-03-01T10:51:47;4.50;1.00
2543;DHT22;1116;51.502;7.414;2023-03-01T10:54:20;4.60;1.00
2543;DHT22;1116;51.502;7.414;2023-03-01T10:56:53;4.60;1.00
2543;DHT22;1116;51.502;7.414;2023-03-01T10:59:30;4.70;1.00
2543;DHT22;1116;51.502;7.414;2023-03-01T11:02:11;4.70;1.00
2543;DHT22;1116;51.502;7.414;2023-03-01T11:04:58;4.90;1.00
2543;DHT22;1116;51.502;7.414;2023-03-01T11:07:29;4.90;1.00
2543;DHT22;1116;51.502;7.414;2023-03-01T11:10:11;5.00;1.00
2543;DHT22;1116;51.502;7.414;2023-03-01T11:12:42;5.00;1.00
2543;DHT22;1116;51.502;7.414;2023-03-01T11:15:24;5.00;1.00
2543;DHT22;1116;51.502;7.414;2023-03-01T11:17:56;5.00;1.00
2543;DHT22;1116;51.502;7.414;2023-03-01T11:20:41;5.20;1.00
2543;DHT22;1116;51.502;7.414;2023-03-01T11:23:13;5.30;1.00
2543;DHT22;1116;51.502;7.414;2023-03-01T11:25:53;5.30;1.00
2543;DHT22;1116;51.502;7.414;2023-03-01T11:28:27;5.40;1.00
2543;DHT22;1116;51.502;7.414;2023-03-01T11:31:04;5.50;1.00
2543;DHT22;1116;51.502;7.414;2023-03-01T11:33:43;5.40;1.00
2543;DHT22;1116;51.502;7.414;2023-03-01T11:36:22;5.60;1.00
2543;DHT22;1116;51.502;7.414;2023-03-01T11:38:55;5.60;1.00
2543;DHT22;1116;51.502;7.414;2023-03-01T11:41:31;5.60;1.00
2543;DHT22;1116;51.502;7.414;2023-03-01T11:44:05;6.10;1.00
2543;DHT22;1116;51.502;7.414;2023-03-01T11:46:57;6.00;1.00
2543;DHT22;1116;51.502;7.414;2023-03-01T11:49:43;6.10;1.00
2543;DHT22;1116;51.502;7.414;2023-03-01T11:52:28;6.20;1.00
2543;DHT22;1116;51.502;7.414;2023-03-01T11:55:19;6.30;1.00
2543;DHT22;1116;51.502;7.414;2023-03-01T11:58:07;6.40;1.00
2543;DHT22;1116;51.502;7.414;2023-03-01T12:01:01;6.40;1.00
2543;DHT22;1116;51.502;7.414;2023-03-01T12:04:00;6.40;1.00
2543;DHT22;1116;51.502;7.414;2023-03-01T12:06:52;6.30;1.00
2543;DHT22;1116;51.502;7.414;2023-03-01T12:09:49;6.20;1.00
2543;DHT22;1116;51.502;7.414;2023-03-01T12:12:29;6.40;1.00
2543;DHT22;1116;51.502;7.414;2023-03-01T12:15:29;6.50;1.00
2543;DHT22;1116;51.502;7.414;2023-03-01T12:18:13;6.50;1.00
2543;DHT22;1116;51.502;7.414;2023-03-01T12:21:00;6.40;1.00
2543;DHT22;1116;51.502;7.414;2023-03-01T12:26:35;6.40;1.00
2543;DHT22;1116;51.502;7.414;2023-03-01T12:29:23;6.60;1.00
2543;DHT22;1116;51.502;7.414;2023-03-01T12:32:09;6.80;1.00
2543;DHT22;1116;51.502;7.414;2023-03-01T12:38:10;6.90;1.00
2543;DHT22;1116;51.502;7.414;2023-03-01T12:44:11;7.00;1.00
2543;DHT22;1116;51.502;7.414;2023-03-01T12:47:02;7.20;1.00
2543;DHT22;1116;51.502;7.414;2023-03-01T12:49:38;7.20;1.00
2543;DHT22;1116;51.502;7.414;2023-03-01T12:52:13;7.20;1.00
2543;DHT22;1116;51.502;7.414;2023-03-01T12:54:49;7.10;1.00
2543;DHT22;1116;51.502;7.414;2023-03-01T12:57:28;7.10;1.00
2543;DHT22;1116;51.502;7.414;2023-03-01T13:02:53;7.10;1.00
2543;DHT22;1116;51.502;7.414;2023-03-01T13:05:34;7.10;1.00
2543;DHT22;1116;51.502;7.414;2023-03-01T13:08:11;7.10;1.00
2543;DHT22;1116;51.502;7.414;2023-03-01T13:10:49;7.00;1.00
2543;DHT22;1116;51.502;7.414;2023-03-01T13:13:23;7.00;1.00
2543;DHT22;1116;51.502;7.414;2023-03-01T13:15:55;7.00;1.00
2543;DHT22;1116;51.502;7.414;2023-03-01T13:18:33;7.20;1.00
2543;DHT22;1116;51.502;7.414;2023-03-01T13:21:04;7.30;1.00
2543;DHT22;1116;51.502;7.414;2023-03-01T13:23:37;7.40;1.00
2543;DHT22;1116;51.502;7.414;2023-03-01T13:26:15;7.50;1.00
2543;DHT22;1116;51.502;7.414;2023-03-01T13:29:18;7.50;1.00
2543;DHT22;1116;51.502;7.414;2023-03-01T13:31:57;7.50;1.00
2543;DHT22;1116;51.502;7.414;2023-03-01T13:34:46;7.60;1.00
2543;DHT22;1116;51.502;7.414;2023-03-01T13:37:23;7.70;1.00
2543;DHT22;1116;51.502;7.414;2023-03-01T13:39:58;7.70;1.00
2543;DHT22;1116;51.502;7.414;2023-03-01T13:42:43;7.70;1.00
2543;DHT22;1116;51.502;7.414;2023-03-01T13:45:40;7.90;1.00
2543;DHT22;1116;51.502;7.414;2023-03-01T13:48:16;7.90;1.00
2543;DHT22;1116;51.502;7.414;2023-03-01T13:51:10;7.90;1.00
2543;DHT22;1116;51.502;7.414;2023-03-01T13:53:45;7.80;1.00
2543;DHT22;1116;51.502;7.414;2023-03-01T13:56:18;7.80;1.00
2543;DHT22;1116;51.502;7.414;2023-03-01T13:58:55;7.90;1.00
2543;DHT22;1116;51.502;7.414;2023-03-01T14:01:32;8.10;1.00
2543;DHT22;1116;51.502;7.414;2023-03-01T14:04:20;8.00;1.00
2543;DHT22;1116;51.502;7.414;2023-03-01T14:06:51;8.00;1.00
2543;DHT22;1116;51.502;7.414;2023-03-01T14:09:26;8.00;1.00
2543;DHT22;1116;51.502;7.414;2023-03-01T14:12:12;8.00;1.00
2543;DHT22;1116;51.502;7.414;2023-03-01T14:14:53;8.00;1.00
2543;DHT22;1116;51.502;7.414;2023-03-01T14:17:45;7.90;1.00
2543;DHT22;1116;51.502;7.414;2023-03-01T14:20:20;7.90;1.00
2543;DHT22;1116;51.502;7.414;2023-03-01T14:22:53;7.80;1.00
2543;DHT22;1116;51.502;7.414;2023-03-01T14:25:29;7.90;1.00
2543;DHT22;1116;51.502;7.414;2023-03-01T14:28:04;7.90;1.00
2543;DHT22;1116;51.502;7.414;2023-03-01T14:30:46;8.00;1.00
2543;DHT22;1116;51.502;7.414;2023-03-01T14:33:23;7.90;1.00
2543;DHT22;1116;51.502;7.414;2023-03-01T14:35:56;7.80;1.00
2543;DHT22;1116;51.502;7.414;2023-03-01T14:38:34;7.80;1.00
2543;DHT22;1116;51.502;7.414;2023-03-01T14:41:08;7.70;1.00
2543;DHT22;1116;51.502;7.414;2023-03-01T14:43:43;7.80;1.00
2543;DHT22;1116;51.502;7.414;2023-03-01T14:46:24;7.80;1.00
2543;DHT22;1116;51.502;7.414;2023-03-01T14:49:02;7.60;1.00
2543;DHT22;1116;51.502;7.414;2023-03-01T14:51:36;7.60;1.00
2543;DHT22;1116;51.502;7.414;2023-03-01T14:54:20;7.80;1.00
2543;DHT22;1116;51.502;7.414;2023-03-01T14:56:53;7.80;1.00
2543;DHT22;1116;51.502;7.414;2023-03-01T14:59:24;7.80;1.00
2543;DHT22;1116;51.502;7.414;2023-03-01T15:01:58;7.70;1.00
2543;DHT22;1116;51.502;7.414;2023-03-01T15:04:29;7.70;1.00
2543;DHT22;1116;51.502;7.414;2023-03-01T15:07:01;7.70;1.00
2543;DHT22;1116;51.502;7.414;2023-03-01T15:09:34;7.70;1.00
2543;DHT22;1116;51.502;7.414;2023-03-01T15:12:32;7.70;1.00
2543;DHT22;1116;51.502;7.414;2023-03-01T15:15:35;7.70;1.00
2543;DHT22;1116;51.502;7.414;2023-03-01T15:18:17;7.70;1.00
2543;DHT22;1116;51.502;7.414;2023-03-01T15:20:49;7.60;1.00
2543;DHT22;1116;51.502;7.414;2023-03-01T15:23:23;7.60;1.00
2543;DHT22;1116;51.502;7.414;2023-03-01T15:25:55;7.60;1.00
2543;DHT22;1116;51.502;7.414;2023-03-01T15:28:29;7.70;1.00
2543;DHT22;1116;51.502;7.414;2023-03-01T15:31:04;7.70;1.00
2543;DHT22;1116;51.502;7.414;2023-03-01T15:33:41;7.60;1.00
2543;DHT22;1116;51.502;7.414;2023-03-01T15:36:31;7.40;1.00
2543;DHT22;1116;51.502;7.414;2023-03-01T15:39:03;7.30;1.00
2543;DHT22;1116;51.502;7.414;2023-03-01T15:41:47;7.40;1.00
2543;DHT22;1116;51.502;7.414;2023-03-01T15:44:27;7.30;1.00
2543;DHT22;1116;51.502;7.414;2023-03-01T15:47:25;7.30;1.00
2543;DHT22;1116;51.502;7.414;2023-03-01T15:50:00;7.30;1.00
2543;DHT22;1116;51.502;7.414;2023-03-01T15:52:34;7.20;1.00
2543;DHT22;1116;51.502;7.414;2023-03-01T15:55:16;7.30;1.00
2543;DHT22;1116;51.502;7.414;2023-03-01T15:57:48;7.30;1.00
2543;DHT22;1116;51.502;7.414;2023-03-01T16:00:22;7.30;1.00
2543;DHT22;1116;51.502;7.414;2023-03-01T16:02:53;7.30;1.00
2543;DHT22;1116;51.502;7.414;2023-03-01T16:05:29;7.30;1.00
2543;DHT22;1116;51.502;7.414;2023-03-01T16:08:01;7.20;1.00
2543;DHT22;1116;51.502;7.414;2023-03-01T16:10:34;7.20;1.00
2543;DHT22;1116;51.502;7.414;2023-03-01T16:13:05;7.00;1.00
2543;DHT22;1116;51.502;7.414;2023-03-01T16:15:36;7.00;1.00
2543;DHT22;1116;51.502;7.414;2023-03-01T16:18:07;7.10;1.00
2543;DHT22;1116;51.502;7.414;2023-03-01T16:20:42;7.00;1.00
2543;DHT22;1116;51.502;7.414;2023-03-01T16:23:16;7.00;1.00
2543;DHT22;1116;51.502;7.414;2023-03-01T16:25:54;6.80;1.00
2543;DHT22;1116;51.502;7.414;2023-03-01T16:28:25;6.70;1.00
2543;DHT22;1116;51.502;7.414;2023-03-01T16:30:57;6.70;1.00
2543;DHT22;1116;51.502;7.414;2023-03-01T16:33:30;6.80;1.00
2543;DHT22;1116;51.502;7.414;2023-03-01T16:36:11;6.60;1.00
2543;DHT22;1116;51.502;7.414;2023-03-01T16:38:43;7.00;1.00
2543;DHT22;1116;51.502;7.414;2023-03-01T16:41:15;6.50;1.00
2543;DHT22;1116;51.502;7.414;2023-03-01T16:43:50;6.50;1.00
2543;DHT22;1116;51.502;7.414;2023-03-01T16:46:24;6.40;1.00
2543;DHT22;1116;51.502;7.414;2023-03-01T16:48:56;6.30;1.00
2543;DHT22;1116;51.502;7.414;2023-03-01T16:51:29;6.30;1.00
2543;DHT22;1116;51.502;7.414;2023-03-01T16:54:02;6.40;1.00
2543;DHT22;1116;51.502;7.414;2023-03-01T16:56:48;6.20;1.00
2543;DHT22;1116;51.502;7.414;2023-03-01T16:59:55;6.10;1.00
2543;DHT22;1116;51.502;7.414;2023-03-01T17:02:59;6.00;1.00
2543;DHT22;1116;51.502;7.414;2023-03-01T17:05:30;6.00;1.00
2543;DHT22;1116;51.502;7.414;2023-03-01T17:08:04;6.00;1.00
2543;DHT22;1116;51.502;7.414;2023-03-01T17:10:35;5.90;1.00
2543;DHT22;1116;51.502;7.414;2023-03-01T17:13:07;5.90;1.00
2543;DHT22;1116;51.502;7.414;2023-03-01T17:15:40;5.80;1.00
2543;DHT22;1116;51.502;7.414;2023-03-01T17:18:11;5.80;1.00
2543;DHT22;1116;51.502;7.414;2023-03-01T17:20:42;5.70;1.00
2543;DHT22;1116;51.502;7.414;2023-03-01T17:23:16;6.10;1.00
2543;DHT22;1116;51.502;7.414;2023-03-01T17:25:47;5.70;1.00
2543;DHT22;1116;51.502;7.414;2023-03-01T17:28:22;5.70;1.00
2543;DHT22;1116;51.502;7.414;2023-03-01T17:30:55;5.60;1.00